Time;durP1;ratioP1;P1;durP2;ratioP2;P2;SDS_P1;SDS_P2;PMS_P1;PMS_P2;Temp;Humidity;BMP_temperature;BMP_pressure;BME280_temperature;BME280_humidity;BME280_pressure;Samples;Min_cycle;Max_cycle;Signal;HPM_P1;HPM_P2
2023/03/30 00:01:13;;;;;;;0.00;0.00;;;11.50;91.80;;;;;;5015991;28;20040;-66
2023/03/30 00:03:41;;;;;;;0.00;0.00;;;11.50;91.80;;;;;;5011321;28;20050;-66
2023/03/30 00:06:09;;;;;;;0.00;0.00;;;11.40;91.80;;;;;;5015768;28;20498;-66
2023/03/30 00:08:35;;;;;;;0.00;0.00;;;11.50;91.70;;;;;;5016796;28;20041;-66
2023/03/30 00:11:15;;;;;;;0.00;0.00;;;11.50;91.60;;;;;;5009272;28;20044;-66
2023/03/30 00:13:42;;;;;;;0.00;0.00;;;11.50;91.60;;;;;;5025377;28;20517;-66
2023/03/30 00:16:10;;;;;;;0.45;0.45;;;11.50;91.60;;;;;;5015775;28;20056;-66
2023/03/30 00:18:38;;;;;;;0.00;0.00;;;11.60;91.50;;;;;;5028927;28;20041;-65
2023/03/30 00:21:06;;;;;;;0.00;0.00;;;11.50;91.50;;;;;;5019899;28;20107;-66
2023/03/30 00:23:32;;;;;;;0.00;0.00;;;11.60;91.50;;;;;;5023439;28;20060;-65
2023/03/30 00:25:58;;;;;;;0.10;0.10;;;11.60;91.50;;;;;;5014579;28;20096;-66
2023/03/30 00:28:25;;;;;;;0.10;0.10;;;11.60;91.60;;;;;;5010833;28;20454;-65
2023/03/30 00:30:52;;;;;;;0.00;0.00;;;11.50;91.60;;;;;;5009617;28;20077;-66
2023/03/30 00:33:18;;;;;;;0.00;0.00;;;11.50;91.60;;;;;;5009480;28;20042;-65
2023/03/30 00:35:54;;;;;;;0.00;0.00;;;11.50;91.70;;;;;;5016680;28;20081;-65
2023/03/30 00:38:20;;;;;;;0.00;0.00;;;11.50;91.60;;;;;;5018374;28;20045;-65
2023/03/30 00:40:54;;;;;;;0.00;0.00;;;11.50;91.60;;;;;;5029064;28;20045;-66
2023/03/30 00:43:21;;;;;;;0.20;0.20;;;11.50;91.50;;;;;;5027209;28;20056;-66
2023/03/30 00:45:47;;;;;;;0.08;0.08;;;11.50;91.40;;;;;;5017334;28;20096;-66
2023/03/30 00:48:21;;;;;;;0.40;0.30;;;11.50;91.40;;;;;;5016275;28;20034;-66
2023/03/30 00:50:51;;;;;;;0.52;0.47;;;11.50;91.40;;;;;;5027240;28;20146;-65
2023/03/30 00:53:25;;;;;;;0.00;0.00;;;11.50;91.30;;;;;;5020446;28;20061;-65
2023/03/30 00:55:52;;;;;;;0.00;0.00;;;11.50;91.30;;;;;;5019759;28;20048;-66
2023/03/30 00:58:21;;;;;;;0.20;0.20;;;11.60;91.30;;;;;;5023822;28;20048;-65
2023/03/30 01:00:47;;;;;;;0.00;0.00;;;11.60;91.30;;;;;;5012884;28;20086;-66
2023/03/30 01:03:35;;;;;;;0.00;0.00;;;11.60;91.20;;;;;;5017505;28;20154;-66
2023/03/30 01:06:06;;;;;;;0.00;0.00;;;11.70;91.10;;;;;;5022367;28;20056;-66
2023/03/30 01:08:32;;;;;;;0.00;0.00;;;11.60;91.00;;;;;;5020676;28;20042;-66
2023/03/30 01:11:02;;;;;;;0.10;0.10;;;11.70;90.90;;;;;;5014875;28;20045;-66
2023/03/30 01:13:29;;;;;;;0.00;0.00;;;11.70;90.80;;;;;;5016629;28;20567;-66
2023/03/30 01:16:06;;;;;;;0.25;0.25;;;11.70;90.70;;;;;;5023820;28;20074;-66
2023/03/30 01:18:35;;;;;;;0.00;0.00;;;11.80;90.60;;;;;;5007772;28;20042;-66
2023/03/30 01:21:26;;;;;;;0.00;0.00;;;11.80;90.50;;;;;;5012455;28;20513;-66
2023/03/30 01:24:03;;;;;;;0.00;0.00;;;11.80;90.40;;;;;;5011791;28;20535;-66
2023/03/30 01:26:37;;;;;;;0.00;0.00;;;11.80;90.00;;;;;;5011860;28;20055;-66
2023/03/30 01:29:33;;;;;;;0.28;0.28;;;11.80;89.90;;;;;;5027264;28;20106;-66
2023/03/30 01:32:29;;;;;;;0.10;0.10;;;11.80;89.80;;;;;;4990017;28;20600;-65
2023/03/30 01:35:16;;;;;;;0.00;0.00;;;11.80;89.70;;;;;;5014297;28;20115;-66
2023/03/30 01:38:17;;;;;;;0.00;0.00;;;11.90;89.50;;;;;;5012338;28;20108;-66
2023/03/30 01:41:00;;;;;;;0.00;0.00;;;11.80;89.30;;;;;;5008684;28;20542;-66
2023/03/30 01:43:39;;;;;;;0.00;0.00;;;11.80;89.30;;;;;;5015606;28;20048;-66
2023/03/30 01:46:16;;;;;;;0.00;0.00;;;11.90;89.10;;;;;;5024815;28;20046;-66
2023/03/30 01:48:44;;;;;;;0.00;0.00;;;11.90;89.00;;;;;;5015625;28;20042;-66
2023/03/30 01:51:23;;;;;;;0.00;0.00;;;11.90;88.90;;;;;;5024583;28;20054;-66
2023/03/30 01:54:03;;;;;;;0.00;0.00;;;11.80;88.70;;;;;;5012057;28;20403;-65
2023/03/30 01:56:35;;;;;;;0.90;0.90;;;11.80;88.60;;;;;;5020122;28;20045;-66
2023/03/30 01:59:25;;;;;;;0.00;0.00;;;11.70;88.50;;;;;;5030135;28;20567;-65
2023/03/30 02:01:59;;;;;;;0.20;0.20;;;11.70;88.30;;;;;;5015670;28;20077;-66
2023/03/30 02:04:27;;;;;;;0.00;0.00;;;11.70;88.20;;;;;;4994000;28;20056;-66
2023/03/30 02:06:57;;;;;;;0.10;0.10;;;11.70;88.20;;;;;;5014402;28;20504;-66
2023/03/30 02:09:25;;;;;;;0.00;0.00;;;11.70;88.10;;;;;;5014966;28;20424;-65
2023/03/30 02:11:52;;;;;;;0.10;0.10;;;11.70;88.10;;;;;;5006068;28;20133;-66
2023/03/30 02:14:30;;;;;;;0.00;0.00;;;11.70;88.10;;;;;;5011390;28;20089;-65
2023/03/30 02:17:02;;;;;;;0.00;0.00;;;11.70;88.00;;;;;;5005890;28;20114;-66
2023/03/30 02:19:29;;;;;;;0.32;0.32;;;11.70;87.90;;;;;;5029233;28;20052;-65
2023/03/30 02:21:55;;;;;;;0.00;0.00;;;11.70;87.90;;;;;;5019560;28;20128;-66
2023/03/30 02:24:24;;;;;;;0.00;0.00;;;11.70;87.90;;;;;;5030737;28;20585;-65
2023/03/30 02:26:51;;;;;;;0.75;0.65;;;11.70;87.90;;;;;;4998384;28;20590;-65
2023/03/30 02:29:19;;;;;;;0.00;0.00;;;11.60;87.90;;;;;;5010376;28;20041;-66
2023/03/30 02:31:47;;;;;;;0.00;0.00;;;11.70;88.00;;;;;;5023761;28;20046;-65
2023/03/30 02:34:45;;;;;;;0.00;0.00;;;11.60;88.00;;;;;;5030277;28;20046;-65
2023/03/30 02:37:41;;;;;;;0.00;0.00;;;11.60;88.00;;;;;;5029039;28;20047;-65
2023/03/30 02:40:21;;;;;;;0.30;0.30;;;11.60;88.00;;;;;;5017829;28;20038;-66
2023/03/30 02:43:02;;;;;;;0.22;0.17;;;11.60;88.00;;;;;;5011241;28;20057;-65
2023/03/30 02:45:52;;;;;;;0.00;0.00;;;11.60;88.10;;;;;;5011049;28;20038;-66
2023/03/30 02:48:35;;;;;;;0.00;0.00;;;11.60;88.20;;;;;;5010380;28;20100;-65
2023/03/30 02:51:18;;;;;;;0.00;0.00;;;11.60;88.30;;;;;;5010573;28;20133;-66
2023/03/30 02:54:21;;;;;;;0.00;0.00;;;11.60;88.30;;;;;;5010735;28;20152;-66
2023/03/30 02:57:22;;;;;;;0.00;0.00;;;11.60;88.40;;;;;;4994506;28;20046;-66
2023/03/30 02:59:53;;;;;;;0.00;0.00;;;11.60;88.50;;;;;;4995615;28;20064;-66
2023/03/30 03:02:26;;;;;;;0.00;0.00;;;11.60;88.70;;;;;;5023508;28;20038;-66
2023/03/30 03:04:53;;;;;;;1.40;1.00;;;11.60;88.60;;;;;;5010202;28;20049;-66
2023/03/30 03:07:20;;;;;;;0.00;0.00;;;11.60;88.70;;;;;;5020286;28;20041;-66
2023/03/30 03:09:46;;;;;;;0.00;0.00;;;11.60;88.90;;;;;;5026630;28;20049;-66
2023/03/30 03:12:12;;;;;;;0.20;0.20;;;11.60;89.10;;;;;;5024452;28;20375;-66
2023/03/30 03:14:38;;;;;;;0.00;0.00;;;11.60;89.20;;;;;;5010462;28;20120;-66
2023/03/30 03:17:04;;;;;;;0.28;0.28;;;11.50;89.30;;;;;;5011770;28;20038;-66
2023/03/30 03:19:30;;;;;;;0.00;0.00;;;11.50;89.30;;;;;;4980838;28;20104;-66
2023/03/30 03:21:56;;;;;;;0.00;0.00;;;11.50;89.40;;;;;;5022052;28;20407;-66
2023/03/30 03:24:22;;;;;;;0.13;0.13;;;11.50;89.40;;;;;;5010296;28;20434;-66
2023/03/30 03:26:48;;;;;;;0.00;0.00;;;11.40;89.30;;;;;;5009536;28;20046;-66
2023/03/30 03:29:14;;;;;;;0.00;0.00;;;11.40;89.40;;;;;;5009139;28;20715;-66
2023/03/30 03:31:40;;;;;;;0.00;0.00;;;11.40;89.80;;;;;;5012904;28;20501;-66
2023/03/30 03:34:06;;;;;;;0.00;0.00;;;11.40;89.80;;;;;;5027760;28;20063;-66
2023/03/30 03:36:31;;;;;;;0.00;0.00;;;11.30;89.80;;;;;;5023767;28;20045;-66
2023/03/30 03:38:57;;;;;;;0.00;0.00;;;11.30;89.80;;;;;;5013986;28;20084;-66
2023/03/30 03:41:23;;;;;;;0.00;0.00;;;11.30;89.90;;;;;;5014330;28;20034;-65
2023/03/30 03:43:48;;;;;;;0.00;0.00;;;11.30;89.80;;;;;;5027639;28;20478;-65
2023/03/30 03:46:14;;;;;;;0.00;0.00;;;11.40;89.90;;;;;;5026966;28;20413;-65
2023/03/30 03:48:40;;;;;;;0.00;0.00;;;11.30;90.00;;;;;;5017245;28;20108;-65
2023/03/30 03:51:06;;;;;;;0.00;0.00;;;11.30;90.00;;;;;;5010357;28;20038;-66
2023/03/30 03:53:32;;;;;;;0.00;0.00;;;11.30;90.00;;;;;;5009824;28;20084;-65
2023/03/30 03:55:58;;;;;;;0.00;0.00;;;11.30;90.00;;;;;;5009734;28;20099;-65
2023/03/30 03:58:24;;;;;;;0.50;0.50;;;11.30;90.10;;;;;;4991334;28;20046;-65
2023/03/30 04:00:51;;;;;;;0.00;0.00;;;11.30;90.10;;;;;;5011974;28;20048;-65
2023/03/30 04:03:16;;;;;;;0.00;0.00;;;11.20;90.00;;;;;;5009511;28;20129;-65
2023/03/30 04:05:42;;;;;;;0.00;0.00;;;11.30;90.00;;;;;;5009470;28;20125;-65
2023/03/30 04:08:09;;;;;;;0.00;0.00;;;11.20;90.10;;;;;;5009895;28;20165;-65
2023/03/30 04:10:39;;;;;;;0.00;0.00;;;11.20;90.20;;;;;;5021054;28;20042;-65
2023/03/30 04:13:04;;;;;;;0.00;0.00;;;11.20;90.20;;;;;;5009606;28;20387;-65
2023/03/30 04:15:30;;;;;;;0.00;0.00;;;11.20;90.10;;;;;;4991819;28;20042;-65
2023/03/30 04:17:58;;;;;;;0.55;0.52;;;11.20;90.00;;;;;;5009449;28;20052;-65
2023/03/30 04:20:26;;;;;;;0.15;0.15;;;11.30;90.10;;;;;;4991836;28;20049;-65
2023/03/30 04:22:52;;;;;;;0.00;0.00;;;11.20;90.10;;;;;;5009129;28;20574;-65
2023/03/30 04:25:20;;;;;;;0.00;0.00;;;11.20;90.10;;;;;;5009460;28;20469;-65
2023/03/30 04:27:50;;;;;;;0.05;0.05;;;11.30;90.10;;;;;;5009886;28;20475;-65
2023/03/30 04:30:16;;;;;;;0.00;0.00;;;11.30;90.10;;;;;;5008201;28;20049;-65
2023/03/30 04:32:43;;;;;;;0.00;0.00;;;11.30;90.10;;;;;;5008795;28;20060;-65
2023/03/30 04:35:10;;;;;;;0.00;0.00;;;11.30;90.20;;;;;;5013302;28;20088;-65
2023/03/30 04:37:37;;;;;;;0.15;0.15;;;11.30;90.30;;;;;;5028963;28;20084;-65
2023/03/30 04:40:06;;;;;;;3.85;1.25;;;11.30;90.20;;;;;;5024306;28;20103;-65
2023/03/30 04:42:36;;;;;;;0.00;0.00;;;11.30;90.20;;;;;;5009272;28;20034;-65
2023/03/30 04:45:04;;;;;;;0.00;0.00;;;11.30;90.10;;;;;;5008438;28;20054;-65
2023/03/30 04:47:29;;;;;;;0.95;0.95;;;11.30;90.10;;;;;;5009305;28;20137;-65
2023/03/30 04:49:55;;;;;;;0.00;0.00;;;11.30;90.10;;;;;;5009431;28;20124;-65
2023/03/30 04:52:21;;;;;;;0.00;0.00;;;11.40;89.90;;;;;;5009584;28;20501;-65
2023/03/30 04:54:47;;;;;;;0.15;0.15;;;11.30;89.80;;;;;;5009972;28;20049;-65
2023/03/30 04:57:14;;;;;;;0.08;0.08;;;11.40;89.90;;;;;;5026274;28;20045;-65
2023/03/30 04:59:41;;;;;;;0.00;0.00;;;11.30;89.90;;;;;;5001782;28;20081;-65
2023/03/30 05:02:07;;;;;;;0.00;0.00;;;11.40;89.90;;;;;;5011074;28;20046;-65
2023/03/30 05:04:34;;;;;;;0.10;0.10;;;11.30;90.00;;;;;;5019786;28;20081;-65
2023/03/30 05:07:00;;;;;;;0.00;0.00;;;11.40;90.10;;;;;;5012703;28;20049;-65
2023/03/30 05:09:26;;;;;;;0.88;0.80;;;11.40;90.10;;;;;;5018737;28;20049;-65
2023/03/30 05:11:52;;;;;;;0.00;0.00;;;11.50;90.20;;;;;;5026405;28;20418;-65
2023/03/30 05:14:17;;;;;;;0.00;0.00;;;11.40;90.10;;;;;;5009943;28;20038;-65
2023/03/30 05:16:43;;;;;;;0.00;0.00;;;11.40;90.10;;;;;;5010092;28;20038;-65
2023/03/30 05:19:09;;;;;;;0.22;0.22;;;11.40;90.10;;;;;;5025833;28;20095;-65
2023/03/30 05:21:35;;;;;;;0.00;0.00;;;11.40;90.30;;;;;;5025327;28;20045;-65
2023/03/30 05:24:00;;;;;;;0.00;0.00;;;11.40;90.40;;;;;;5028282;28;20060;-65
2023/03/30 05:26:27;;;;;;;0.00;0.00;;;11.50;90.30;;;;;;5025379;28;20041;-65
2023/03/30 05:28:53;;;;;;;0.00;0.00;;;11.50;90.40;;;;;;5022645;28;20077;-65
2023/03/30 05:31:19;;;;;;;0.10;0.10;;;11.40;90.40;;;;;;5014639;28;20046;-65
2023/03/30 05:33:45;;;;;;;0.00;0.00;;;11.50;90.30;;;;;;5009036;28;20046;-65
2023/03/30 05:36:11;;;;;;;0.00;0.00;;;11.50;90.30;;;;;;5009066;28;20164;-65
2023/03/30 05:38:36;;;;;;;0.00;0.00;;;11.50;90.20;;;;;;5010447;28;20473;-65
2023/03/30 05:41:03;;;;;;;0.00;0.00;;;11.60;90.20;;;;;;4990650;28;20415;-65
2023/03/30 05:43:30;;;;;;;0.00;0.00;;;11.60;90.20;;;;;;5021258;28;20085;-65
2023/03/30 05:45:55;;;;;;;0.20;0.20;;;11.60;90.00;;;;;;4995104;28;20169;-66
2023/03/30 05:48:21;;;;;;;0.10;0.10;;;11.60;90.00;;;;;;5020390;28;20093;-65
2023/03/30 05:50:47;;;;;;;0.10;0.10;;;11.60;89.90;;;;;;5029460;28;20041;-65
2023/03/30 05:53:13;;;;;;;0.00;0.00;;;11.70;89.80;;;;;;5014810;28;20044;-65
2023/03/30 05:55:41;;;;;;;0.00;0.00;;;11.60;89.80;;;;;;5011231;28;20435;-65
2023/03/30 05:58:07;;;;;;;0.00;0.00;;;11.60;89.70;;;;;;5014406;28;20103;-65
2023/03/30 06:00:35;;;;;;;0.10;0.10;;;11.70;89.70;;;;;;5011224;28;20037;-64
2023/03/30 06:03:01;;;;;;;0.00;0.00;;;11.60;89.70;;;;;;5018205;28;20054;-65
2023/03/30 06:05:26;;;;;;;0.00;0.00;;;11.60;89.70;;;;;;5028555;28;20529;-65
2023/03/30 06:07:53;;;;;;;0.00;0.00;;;11.60;89.60;;;;;;5026805;28;20049;-65
2023/03/30 06:10:18;;;;;;;1.92;1.50;;;11.60;89.70;;;;;;5027384;28;20046;-65
2023/03/30 06:12:44;;;;;;;0.00;0.00;;;11.60;89.70;;;;;;5019913;28;20050;-66
2023/03/30 06:15:10;;;;;;;0.00;0.00;;;11.60;89.70;;;;;;5011202;28;20092;-66
2023/03/30 06:17:36;;;;;;;0.00;0.00;;;11.60;89.70;;;;;;5011313;28;20117;-66
2023/03/30 06:20:10;;;;;;;0.00;0.00;;;11.60;89.70;;;;;;5010738;28;20509;-65
2023/03/30 06:22:35;;;;;;;1.23;1.20;;;11.60;89.60;;;;;;4973365;28;20366;-65
2023/03/30 06:25:01;;;;;;;0.00;0.00;;;11.70;89.30;;;;;;4990610;28;20117;-65
2023/03/30 06:27:30;;;;;;;0.00;0.00;;;11.60;89.30;;;;;;4989803;28;20484;-65
2023/03/30 06:29:56;;;;;;;0.00;0.00;;;11.60;89.30;;;;;;4998763;28;20100;-65
2023/03/30 06:32:21;;;;;;;0.00;0.00;;;11.70;89.40;;;;;;4991123;28;20480;-65
2023/03/30 06:34:47;;;;;;;0.00;0.00;;;11.60;89.30;;;;;;5004653;28;20042;-66
2023/03/30 06:37:14;;;;;;;0.00;0.00;;;11.70;89.20;;;;;;4994033;28;20038;-66
2023/03/30 06:39:39;;;;;;;0.00;0.00;;;11.70;89.10;;;;;;4994953;28;20108;-64
2023/03/30 06:42:05;;;;;;;0.00;0.00;;;11.70;89.00;;;;;;5002839;28;20525;-66
2023/03/30 06:44:32;;;;;;;0.38;0.38;;;11.60;88.90;;;;;;4996340;28;20439;-66
2023/03/30 06:46:58;;;;;;;0.00;0.00;;;11.70;88.80;;;;;;4991570;28;20050;-66
2023/03/30 06:49:24;;;;;;;1.63;1.27;;;11.70;88.70;;;;;;4991088;28;20523;-63
2023/03/30 06:51:50;;;;;;;0.00;0.00;;;11.60;88.80;;;;;;4995166;28;20049;-63
2023/03/30 06:54:19;;;;;;;0.00;0.00;;;11.60;88.70;;;;;;4994716;28;20046;-63
2023/03/30 06:56:45;;;;;;;0.22;0.22;;;11.60;88.80;;;;;;5003519;28;20105;-62
2023/03/30 06:59:12;;;;;;;0.00;0.00;;;11.60;89.00;;;;;;5001156;28;20049;-63
2023/03/30 07:01:37;;;;;;;0.20;0.20;;;11.60;88.80;;;;;;4996917;28;20050;-63
2023/03/30 07:04:04;;;;;;;0.00;0.00;;;11.60;88.60;;;;;;4993686;28;20053;-62
2023/03/30 07:06:30;;;;;;;0.08;0.08;;;11.70;88.50;;;;;;4992084;28;20054;-63
2023/03/30 07:08:56;;;;;;;0.00;0.00;;;11.60;88.50;;;;;;4999297;28;20499;-63
2023/03/30 07:11:22;;;;;;;0.00;0.00;;;11.60;88.50;;;;;;4990234;28;20045;-62
2023/03/30 07:13:47;;;;;;;0.47;0.47;;;11.70;88.60;;;;;;4998336;28;20388;-62
2023/03/30 07:16:13;;;;;;;0.00;0.00;;;11.60;88.40;;;;;;5009291;28;20121;-59
2023/03/30 07:18:39;;;;;;;0.00;0.00;;;11.70;88.40;;;;;;5002923;28;20499;-63
2023/03/30 07:21:05;;;;;;;0.00;0.00;;;11.70;88.20;;;;;;5000282;28;20040;-64
2023/03/30 07:23:30;;;;;;;0.00;0.00;;;11.60;88.10;;;;;;5002646;28;20049;-63
2023/03/30 07:25:56;;;;;;;0.00;0.00;;;11.60;87.90;;;;;;5018037;28;20262;-63
2023/03/30 07:28:22;;;;;;;0.00;0.00;;;11.60;88.00;;;;;;5015138;28;20430;-64
2023/03/30 07:30:48;;;;;;;0.15;0.15;;;11.60;88.10;;;;;;5023134;28;20132;-63
2023/03/30 07:33:13;;;;;;;0.00;0.00;;;11.50;88.00;;;;;;5019662;28;20127;-63
2023/03/30 07:35:46;;;;;;;0.20;0.20;;;11.50;88.00;;;;;;5012746;28;20038;-63
2023/03/30 07:38:13;;;;;;;0.30;0.30;;;11.50;88.00;;;;;;5009256;28;20149;-63
2023/03/30 07:40:39;;;;;;;0.00;0.00;;;11.50;88.00;;;;;;5015323;28;20048;-63
2023/03/30 07:43:06;;;;;;;0.43;0.43;;;11.50;88.00;;;;;;5000699;28;20566;-63
2023/03/30 07:45:32;;;;;;;0.70;0.70;;;11.50;88.00;;;;;;5009204;28;20506;-65
2023/03/30 07:47:58;;;;;;;0.10;0.10;;;11.50;88.20;;;;;;4996778;28;20520;-65
2023/03/30 07:50:24;;;;;;;0.00;0.00;;;11.50;88.30;;;;;;5019993;28;20120;-65
2023/03/30 07:52:50;;;;;;;2.95;1.65;;;11.40;88.70;;;;;;5011300;28;20049;-65
2023/03/30 07:55:16;;;;;;;0.30;0.30;;;11.40;89.00;;;;;;5031924;28;20038;-65
2023/03/30 07:57:42;;;;;;;0.00;0.00;;;11.40;89.00;;;;;;5034513;28;20458;-65
2023/03/30 08:00:09;;;;;;;7.28;0.68;;;11.40;89.20;;;;;;5016553;28;20037;-65
2023/03/30 08:02:35;;;;;;;0.00;0.00;;;11.30;89.20;;;;;;5031274;28;20049;-65
2023/03/30 08:05:01;;;;;;;0.03;0.03;;;11.50;89.00;;;;;;5015286;28;20048;-65
2023/03/30 08:07:27;;;;;;;0.10;0.10;;;11.50;88.70;;;;;;5034477;28;20037;-65
2023/03/30 08:09:53;;;;;;;0.10;0.10;;;11.50;88.70;;;;;;5036293;28;20464;-65
2023/03/30 08:12:19;;;;;;;0.10;0.10;;;11.50;88.30;;;;;;5037174;28;20453;-65
2023/03/30 08:14:45;;;;;;;4.68;2.20;;;11.60;88.20;;;;;;5037035;28;20068;-65
2023/03/30 08:17:11;;;;;;;0.20;0.20;;;11.50;88.40;;;;;;5034387;28;20442;-65
2023/03/30 08:19:37;;;;;;;0.82;0.82;;;11.40;88.30;;;;;;4999701;28;20048;-65
2023/03/30 08:22:02;;;;;;;0.38;0.38;;;11.50;88.30;;;;;;5036814;28;20103;-65
2023/03/30 08:24:28;;;;;;;0.00;0.00;;;11.50;88.00;;;;;;5035117;28;20140;-65
2023/03/30 08:26:54;;;;;;;0.00;0.00;;;11.50;88.00;;;;;;5037143;28;20461;-65
2023/03/30 08:29:20;;;;;;;0.00;0.00;;;11.50;87.90;;;;;;5034505;28;20046;-65
2023/03/30 08:31:46;;;;;;;0.00;0.00;;;11.60;87.20;;;;;;5031433;28;20046;-65
2023/03/30 08:34:12;;;;;;;3.63;1.48;;;11.60;86.90;;;;;;5025416;28;20053;-65
2023/03/30 08:36:37;;;;;;;0.00;0.00;;;11.70;86.80;;;;;;5034948;28;20045;-65
2023/03/30 08:39:03;;;;;;;0.00;0.00;;;11.70;86.10;;;;;;5034511;28;20029;-65
2023/03/30 08:41:30;;;;;;;0.00;0.00;;;11.80;86.10;;;;;;5034299;28;20037;-65
2023/03/30 08:44:27;;;;;;;0.00;0.00;;;11.90;85.50;;;;;;5033906;28;20053;-65
2023/03/30 08:46:53;;;;;;;0.57;0.57;;;11.90;85.60;;;;;;5036586;28;20133;-65
2023/03/30 08:49:20;;;;;;;0.10;0.10;;;12.10;84.30;;;;;;5016103;28;20120;-64
2023/03/30 08:51:49;;;;;;;0.52;0.40;;;12.10;84.80;;;;;;5034974;28;20060;-65
2023/03/30 08:54:21;;;;;;;0.00;0.00;;;12.10;84.20;;;;;;5032537;28;20508;-65
2023/03/30 08:57:05;;;;;;;2.17;0.70;;;12.10;84.60;;;;;;5035658;28;20041;-64
2023/03/30 08:59:43;;;;;;;0.88;0.88;;;12.10;83.40;;;;;;5035529;28;20041;-65
2023/03/30 09:02:27;;;;;;;0.47;0.47;;;12.20;83.40;;;;;;5035739;28;20068;-65
2023/03/30 09:05:01;;;;;;;0.10;0.10;;;12.20;83.60;;;;;;5035478;28;20777;-65
2023/03/30 09:07:31;;;;;;;0.10;0.10;;;12.30;82.80;;;;;;5036597;28;20045;-65
2023/03/30 09:09:58;;;;;;;0.00;0.00;;;12.40;82.80;;;;;;5036578;28;20033;-65
2023/03/30 09:12:39;;;;;;;4.18;1.85;;;12.40;82.80;;;;;;5037724;28;20038;-64
2023/03/30 09:15:05;;;;;;;0.00;0.00;;;12.40;82.50;;;;;;5012260;28;20073;-65
2023/03/30 09:17:45;;;;;;;0.00;0.00;;;12.40;82.70;;;;;;5017065;28;20102;-65
2023/03/30 09:20:32;;;;;;;0.40;0.40;;;12.40;81.50;;;;;;5034342;28;20049;-64
2023/03/30 09:22:59;;;;;;;0.52;0.52;;;12.40;82.00;;;;;;5039733;28;20063;-65
2023/03/30 09:25:50;;;;;;;0.00;0.00;;;12.30;81.90;;;;;;5036657;28;20168;-65
2023/03/30 09:28:37;;;;;;;2.97;2.28;;;12.40;81.90;;;;;;5040073;28;20097;-64
2023/03/30 09:31:12;;;;;;;0.22;0.22;;;12.40;81.80;;;;;;5038501;28;20048;-65
2023/03/30 09:33:45;;;;;;;0.00;0.00;;;12.40;81.60;;;;;;5036441;28;20069;-65
2023/03/30 09:36:27;;;;;;;0.55;0.55;;;12.30;81.80;;;;;;5037298;28;20124;-64
2023/03/30 09:38:52;;;;;;;0.00;0.00;;;12.30;81.30;;;;;;5039090;28;20041;-65
2023/03/30 09:41:27;;;;;;;0.03;0.03;;;12.30;81.10;;;;;;5039671;28;20367;-65
2023/03/30 09:43:56;;;;;;;0.10;0.10;;;12.30;81.10;;;;;;5037705;28;20428;-64
2023/03/30 09:46:22;;;;;;;0.08;0.08;;;12.30;80.80;;;;;;5034041;28;20049;-64
2023/03/30 09:48:48;;;;;;;0.00;0.00;;;12.30;81.40;;;;;;5033911;28;20037;-65
2023/03/30 09:51:27;;;;;;;0.00;0.00;;;12.30;81.30;;;;;;5038120;28;20049;-65
2023/03/30 09:54:00;;;;;;;0.03;0.03;;;12.30;81.30;;;;;;5033590;28;20054;-64
2023/03/30 09:56:34;;;;;;;0.00;0.00;;;12.30;81.00;;;;;;5036155;28;20144;-64
2023/03/30 09:59:28;;;;;;;0.00;0.00;;;12.20;81.50;;;;;;5039317;28;20049;-65
2023/03/30 10:02:09;;;;;;;0.20;0.20;;;12.30;81.60;;;;;;5021531;28;20048;-65
2023/03/30 10:05:01;;;;;;;0.15;0.15;;;12.30;81.80;;;;;;5038457;28;20111;-64
2023/03/30 10:07:34;;;;;;;0.43;0.43;;;12.30;81.90;;;;;;5021428;28;20045;-64
2023/03/30 10:10:12;;;;;;;0.00;0.00;;;12.30;81.90;;;;;;5032516;28;20124;-64
2023/03/30 10:12:38;;;;;;;0.30;0.22;;;12.40;82.10;;;;;;5020296;28;20057;-65
2023/03/30 10:15:04;;;;;;;0.00;0.00;;;12.40;81.90;;;;;;5033297;28;20053;-64
2023/03/30 10:17:30;;;;;;;4.43;2.38;;;12.50;82.10;;;;;;5026454;28;20048;-64
2023/03/30 10:20:27;;;;;;;0.05;0.05;;;12.50;82.00;;;;;;5010271;28;20053;-64
2023/03/30 10:23:02;;;;;;;0.00;0.00;;;12.40;82.30;;;;;;4999629;28;20135;-64
2023/03/30 10:25:31;;;;;;;1.85;1.75;;;12.50;82.10;;;;;;5022013;28;20057;-64
2023/03/30 10:28:01;;;;;;;0.00;0.00;;;12.50;82.00;;;;;;5029052;28;20152;-65
2023/03/30 10:30:28;;;;;;;0.88;0.57;;;12.60;82.10;;;;;;5031266;28;20136;-66
2023/03/30 10:33:00;;;;;;;0.00;0.00;;;12.50;82.30;;;;;;5031990;28;20124;-66
2023/03/30 10:35:34;;;;;;;0.03;0.03;;;12.60;82.50;;;;;;5031396;28;20572;-65
2023/03/30 10:38:01;;;;;;;1.48;1.38;;;12.70;81.90;;;;;;5031439;28;20045;-66
2023/03/30 10:40:36;;;;;;;0.00;0.00;;;12.80;81.50;;;;;;5031454;28;20046;-66
2023/03/30 10:43:03;;;;;;;0.10;0.10;;;12.80;82.40;;;;;;4997759;28;20120;-66
2023/03/30 10:45:41;;;;;;;0.15;0.15;;;12.90;82.20;;;;;;5031430;28;20041;-66
2023/03/30 10:48:18;;;;;;;0.00;0.00;;;12.90;81.40;;;;;;5030759;28;20096;-65
2023/03/30 10:51:10;;;;;;;0.03;0.03;;;12.90;81.80;;;;;;5030676;28;20084;-66
2023/03/30 10:53:53;;;;;;;0.00;0.00;;;12.90;81.00;;;;;;5030472;28;20045;-66
2023/03/30 10:56:38;;;;;;;0.00;0.00;;;13.00;80.60;;;;;;5031011;28;20823;-66
2023/03/30 10:59:41;;;;;;;0.82;0.82;;;13.10;80.30;;;;;;5012957;28;20096;-66
2023/03/30 11:02:34;;;;;;;0.00;0.00;;;13.10;79.90;;;;;;5012092;28;20494;-66
2023/03/30 11:05:25;;;;;;;0.85;0.85;;;13.20;79.50;;;;;;5030867;28;20128;-66
2023/03/30 11:07:58;;;;;;;0.00;0.00;;;13.20;78.80;;;;;;5030573;28;20494;-66
2023/03/30 11:10:43;;;;;;;0.00;0.00;;;13.20;79.60;;;;;;5030412;28;20066;-66
2023/03/30 11:13:29;;;;;;;0.43;0.38;;;13.20;80.20;;;;;;5030386;28;20049;-66
2023/03/30 11:16:06;;;;;;;0.63;0.63;;;13.30;78.90;;;;;;5030603;28;20042;-66
2023/03/30 11:18:47;;;;;;;6.88;3.08;;;13.30;79.30;;;;;;5030173;28;20537;-66
2023/03/30 11:21:30;;;;;;;0.00;0.00;;;13.30;79.30;;;;;;5030181;28;20077;-66
2023/03/30 11:23:58;;;;;;;0.47;0.47;;;13.40;78.90;;;;;;5011855;28;20506;-66
2023/03/30 11:26:39;;;;;;;0.88;0.88;;;13.50;78.70;;;;;;5029889;28;20045;-65
2023/03/30 11:29:19;;;;;;;0.85;0.77;;;13.70;78.40;;;;;;5012759;28;20053;-65
2023/03/30 11:31:57;;;;;;;0.10;0.10;;;13.70;78.00;;;;;;5030028;28;20471;-65
2023/03/30 11:34:51;;;;;;;0.00;0.00;;;13.60;77.80;;;;;;5012454;28;20112;-65
2023/03/30 11:37:20;;;;;;;0.75;0.75;;;13.60;77.90;;;;;;5029460;28;20056;-65
2023/03/30 11:39:57;;;;;;;7.53;1.17;;;13.60;78.50;;;;;;5030011;28;20064;-65
2023/03/30 11:42:27;;;;;;;0.05;0.05;;;13.60;77.70;;;;;;5029418;28;20162;-65
2023/03/30 11:44:53;;;;;;;0.98;0.93;;;13.70;78.10;;;;;;5029552;28;20053;-65
2023/03/30 11:47:48;;;;;;;0.50;0.50;;;13.70;77.80;;;;;;5029679;28;20049;-65
2023/03/30 11:50:30;;;;;;;0.00;0.00;;;13.80;76.60;;;;;;5029953;28;20410;-65
2023/03/30 11:53:15;;;;;;;;;;;13.70;76.20;;;;;;5012816;28;20045;-65
2023/03/30 11:55:40;;;;;;;0.52;0.38;;;13.70;77.20;;;;;;5029433;28;19932;-65
2023/03/30 11:58:09;;;;;;;0.20;0.20;;;13.60;77.20;;;;;;5029209;28;20437;-65
2023/03/30 12:01:03;;;;;;;0.00;0.00;;;13.70;77.60;;;;;;5029575;28;20463;-64
2023/03/30 12:03:35;;;;;;;0.00;0.00;;;13.70;76.80;;;;;;4995208;28;20049;-65
2023/03/30 12:06:36;;;;;;;1.00;0.47;;;13.70;77.50;;;;;;5012113;28;20468;-65
2023/03/30 12:09:23;;;;;;;0.00;0.00;;;13.60;77.80;;;;;;5015551;28;20144;-65
2023/03/30 12:12:40;;;;;;;0.40;0.40;;;13.60;77.10;;;;;;5011986;28;20049;-64
2023/03/30 12:15:18;;;;;;;1.35;1.35;;;13.80;78.10;;;;;;4996114;28;20510;-65
2023/03/30 12:17:56;;;;;;;0.10;0.10;;;13.80;77.10;;;;;;5029032;28;20457;-65
2023/03/30 12:20:42;;;;;;;0.00;0.00;;;13.90;77.50;;;;;;5029550;28;20120;-65
2023/03/30 12:23:11;;;;;;;1.65;1.50;;;14.10;77.60;;;;;;5028707;28;20064;-65
2023/03/30 12:25:58;;;;;;;0.17;0.17;;;14.20;76.00;;;;;;5028756;28;20049;-65
2023/03/30 12:28:25;;;;;;;0.00;0.00;;;14.10;76.70;;;;;;5029208;28;20430;-65
2023/03/30 12:30:57;;;;;;;2.17;1.17;;;14.10;76.80;;;;;;5029338;28;20041;-65
2023/03/30 12:33:35;;;;;;;0.10;0.10;;;14.00;76.10;;;;;;5029243;28;20046;-65
2023/03/30 12:36:33;;;;;;;25.45;0.98;;;14.00;76.70;;;;;;5028720;28;20046;-65
2023/03/30 12:39:04;;;;;;;0.00;0.00;;;14.00;76.50;;;;;;5029293;28;20494;-65
2023/03/30 12:41:47;;;;;;;1.77;1.45;;;14.10;77.30;;;;;;5029148;28;20053;-65
2023/03/30 12:44:50;;;;;;;0.15;0.15;;;14.10;77.20;;;;;;5011399;28;20045;-65
2023/03/30 12:48:08;;;;;;;0.80;0.80;;;14.10;77.90;;;;;;5029122;28;20418;-65
2023/03/30 12:50:39;;;;;;;1.60;0.75;;;14.20;77.00;;;;;;4974750;28;20054;-65
2023/03/30 12:53:43;;;;;;;0.75;0.75;;;14.30;76.50;;;;;;5014338;28;20091;-65
2023/03/30 12:56:51;;;;;;;0.00;0.00;;;14.20;77.20;;;;;;4978293;28;20151;-65
2023/03/30 12:59:35;;;;;;;5.45;1.13;;;14.30;77.20;;;;;;5033025;28;20045;-66
2023/03/30 13:02:22;;;;;;;0.85;0.85;;;14.40;76.60;;;;;;5033047;28;20119;-65
2023/03/30 13:04:48;;;;;;;1.08;0.32;;;14.20;74.80;;;;;;5032479;28;20116;-66
2023/03/30 13:07:23;;;;;;;0.00;0.00;;;14.10;75.60;;;;;;5032885;28;20049;-66
2023/03/30 13:10:22;;;;;;;1.10;1.02;;;14.10;75.90;;;;;;5032724;28;20038;-65
2023/03/30 13:12:48;;;;;;;0.00;0.00;;;14.20;76.20;;;;;;5033438;28;20099;-65
2023/03/30 13:15:29;;;;;;;0.63;0.63;;;14.20;77.00;;;;;;5032729;28;20057;-65